sensor_id;sensor_type;location;lat;lon;timestamp;pressure;altitude;pressure_sealevel;temperature;humidity
21781;BME280;52576;53.614;9.894;2024-02-16T00:00:54;100963.97;;;10.69;100.00
21781;BME280;52576;53.614;9.894;2024-02-16T00:02:56;100965.63;;;10.70;100.00
21781;BME280;52576;53.614;9.894;2024-02-16T00:05:01;100957.88;;;10.69;100.00
21781;BME280;52576;53.614;9.894;2024-02-16T00:07:07;100952.63;;;10.69;100.00
21781;BME280;52576;53.614;9.894;2024-02-16T00:09:09;100957.13;;;10.67;100.00
21781;BME280;52576;53.614;9.894;2024-02-16T00:11:12;100965.94;;;10.66;100.00
21781;BME280;52576;53.614;9.894;2024-02-16T00:13:16;100951.16;;;10.65;100.00
21781;BME280;52576;53.614;9.894;2024-02-16T00:15:19;100948.75;;;10.62;100.00
21781;BME280;52576;53.614;9.894;2024-02-16T00:17:22;100945.38;;;10.60;100.00
21781;BME280;52576;53.614;9.894;2024-02-16T00:19:28;100944.63;;;10.58;100.00
21781;BME280;52576;53.614;9.894;2024-02-16T00:21:32;100936.13;;;10.54;100.00
21781;BME280;52576;53.614;9.894;2024-02-16T00:23:35;100935.28;;;10.53;100.00
21781;BME280;52576;53.614;9.894;2024-02-16T00:25:38;100936.31;;;10.51;100.00
21781;BME280;52576;53.614;9.894;2024-02-16T00:27:42;100931.91;;;10.51;100.00
21781;BME280;52576;53.614;9.894;2024-02-16T00:29:46;100928.34;;;10.52;100.00
21781;BME280;52576;53.614;9.894;2024-02-16T00:31:50;100928.34;;;10.52;100.00
21781;BME280;52576;53.614;9.894;2024-02-16T00:33:53;100924.78;;;10.53;100.00
21781;BME280;52576;53.614;9.894;2024-02-16T00:35:56;100924.78;;;10.53;100.00
21781;BME280;52576;53.614;9.894;2024-02-16T00:37:59;100919.56;;;10.53;100.00
21781;BME280;52576;53.614;9.894;2024-02-16T00:40:02;100915.16;;;10.54;100.00
21781;BME280;52576;53.614;9.894;2024-02-16T00:42:06;100916.00;;;10.54;100.00
21781;BME280;52576;53.614;9.894;2024-02-16T00:44:12;100910.66;;;10.56;100.00
21781;BME280;52576;53.614;9.894;2024-02-16T00:46:16;100919.38;;;10.57;100.00
21781;BME280;52576;53.614;9.894;2024-02-16T00:48:19;100917.47;;;10.59;100.00
21781;BME280;52576;53.614;9.894;2024-02-16T00:50:22;100906.25;;;10.57;100.00
21781;BME280;52576;53.614;9.894;2024-02-16T00:52:25;100904.56;;;10.56;100.00
21781;BME280;52576;53.614;9.894;2024-02-16T00:54:29;100916.00;;;10.54;100.00
21781;BME280;52576;53.614;9.894;2024-02-16T00:56:32;100908.22;;;10.53;100.00
21781;BME280;52576;53.614;9.894;2024-02-16T00:58:35;100922.28;;;10.52;100.00
21781;BME280;52576;53.614;9.894;2024-02-16T01:00:39;100911.88;;;10.50;100.00
21781;BME280;52576;53.614;9.894;2024-02-16T01:02:44;100904.22;;;10.47;100.00
21781;BME280;52576;53.614;9.894;2024-02-16T01:04:48;100903.47;;;10.45;100.00
21781;BME280;52576;53.614;9.894;2024-02-16T01:06:52;100902.81;;;10.42;100.00
21781;BME280;52576;53.614;9.894;2024-02-16T01:08:54;100907.31;;;10.40;100.00
21781;BME280;52576;53.614;9.894;2024-02-16T01:10:57;100899.78;;;10.35;100.00
21781;BME280;52576;53.614;9.894;2024-02-16T01:13:00;100909.59;;;10.32;100.00
21781;BME280;52576;53.614;9.894;2024-02-16T01:15:06;100901.94;;;10.29;100.00
21781;BME280;52576;53.614;9.894;2024-02-16T01:17:09;100915.13;;;10.27;100.00
21781;BME280;52576;53.614;9.894;2024-02-16T01:19:14;100916.16;;;10.25;100.00
21781;BME280;52576;53.614;9.894;2024-02-16T01:21:17;100921.50;;;10.23;100.00
21781;BME280;52576;53.614;9.894;2024-02-16T01:23:19;100922.53;;;10.20;100.00
21781;BME280;52576;53.614;9.894;2024-02-16T01:25:22;100919.06;;;10.20;100.00
21781;BME280;52576;53.614;9.894;2024-02-16T01:27:24;100913.06;;;10.18;100.00
21781;BME280;52576;53.614;9.894;2024-02-16T01:29:29;100911.38;;;10.17;100.00
21781;BME280;52576;53.614;9.894;2024-02-16T01:31:31;100904.44;;;10.16;100.00
21781;BME280;52576;53.614;9.894;2024-02-16T01:33:35;100895.84;;;10.14;100.00
21781;BME280;52576;53.614;9.894;2024-02-16T01:35:40;100897.63;;;10.13;100.00
21781;BME280;52576;53.614;9.894;2024-02-16T01:37:43;100878.66;;;10.10;100.00
21781;BME280;52576;53.614;9.894;2024-02-16T01:39:46;100881.47;;;10.07;100.00
21781;BME280;52576;53.614;9.894;2024-02-16T01:41:49;100892.88;;;10.06;100.00
21781;BME280;52576;53.614;9.894;2024-02-16T01:43:52;100889.53;;;10.04;100.00
21781;BME280;52576;53.614;9.894;2024-02-16T01:45:56;100893.06;;;10.03;100.00
21781;BME280;52576;53.614;9.894;2024-02-16T01:48:01;100883.53;;;10.02;100.00
21781;BME280;52576;53.614;9.894;2024-02-16T01:50:05;100889.72;;;10.01;100.00
21781;BME280;52576;53.614;9.894;2024-02-16T01:52:10;100890.56;;;10.01;100.00
21781;BME280;52576;53.614;9.894;2024-02-16T01:54:14;100881.84;;;10.01;100.00
21781;BME280;52576;53.614;9.894;2024-02-16T01:56:19;100881.84;;;10.01;100.00
21781;BME280;52576;53.614;9.894;2024-02-16T01:58:23;100875.69;;;10.02;100.00
21781;BME280;52576;53.614;9.894;2024-02-16T02:00:28;100868.66;;;10.02;100.00
21781;BME280;52576;53.614;9.894;2024-02-16T02:02:31;100859.88;;;10.03;100.00
21781;BME280;52576;53.614;9.894;2024-02-16T02:04:36;100854.53;;;10.05;100.00
21781;BME280;52576;53.614;9.894;2024-02-16T02:06:39;100849.31;;;10.05;100.00
21781;BME280;52576;53.614;9.894;2024-02-16T02:08:44;100844.91;;;10.05;100.00
21781;BME280;52576;53.614;9.894;2024-02-16T02:10:47;100845.75;;;10.06;100.00
21781;BME280;52576;53.614;9.894;2024-02-16T02:12:51;100844.81;;;10.07;100.00
21781;BME280;52576;53.614;9.894;2024-02-16T02:14:54;100832.66;;;10.06;100.00
21781;BME280;52576;53.614;9.894;2024-02-16T02:16:56;100836.13;;;10.06;100.00
21781;BME280;52576;53.614;9.894;2024-02-16T02:19:00;100838.81;;;10.05;100.00
21781;BME280;52576;53.614;9.894;2024-02-16T02:21:04;100821.34;;;10.05;100.00
21781;BME280;52576;53.614;9.894;2024-02-16T02:23:10;100836.13;;;10.06;100.00
21781;BME280;52576;53.614;9.894;2024-02-16T02:25:13;100829.09;;;10.07;100.00
21781;BME280;52576;53.614;9.894;2024-02-16T02:27:16;100836.97;;;10.07;100.00
21781;BME280;52576;53.614;9.894;2024-02-16T02:29:20;100843.88;;;10.08;100.00
21781;BME280;52576;53.614;9.894;2024-02-16T02:31:23;100835.09;;;10.09;100.00
21781;BME280;52576;53.614;9.894;2024-02-16T02:33:26;100848.19;;;10.09;100.00
21781;BME280;52576;53.614;9.894;2024-02-16T02:35:29;100836.03;;;10.08;100.00
21781;BME280;52576;53.614;9.894;2024-02-16T02:37:32;100837.69;;;10.09;100.00
21781;BME280;52576;53.614;9.894;2024-02-16T02:39:37;100839.56;;;10.07;100.00
21781;BME280;52576;53.614;9.894;2024-02-16T02:41:40;100831.72;;;10.07;100.00
21781;BME280;52576;53.614;9.894;2024-02-16T02:43:42;100827.31;;;10.07;100.00
21781;BME280;52576;53.614;9.894;2024-02-16T02:45:45;100823.03;;;10.06;100.00
21781;BME280;52576;53.614;9.894;2024-02-16T02:47:48;100816.00;;;10.07;100.00
21781;BME280;52576;53.614;9.894;2024-02-16T02:49:51;100816.00;;;10.07;100.00
21781;BME280;52576;53.614;9.894;2024-02-16T02:51:54;100814.31;;;10.06;100.00
21781;BME280;52576;53.614;9.894;2024-02-16T02:53:57;100815.16;;;10.06;100.00
21781;BME280;52576;53.614;9.894;2024-02-16T02:56:01;100813.47;;;10.05;100.00
21781;BME280;52576;53.614;9.894;2024-02-16T02:58:04;100803.00;;;10.05;100.00
21781;BME280;52576;53.614;9.894;2024-02-16T03:00:08;100807.41;;;10.05;100.00
21781;BME280;52576;53.614;9.894;2024-02-16T03:02:14;100802.16;;;10.05;100.00
21781;BME280;52576;53.614;9.894;2024-02-16T03:04:17;100800.28;;;10.07;100.00
21781;BME280;52576;53.614;9.894;2024-02-16T03:06:20;100792.44;;;10.07;100.00
21781;BME280;52576;53.614;9.894;2024-02-16T03:08:23;100796.75;;;10.08;100.00
21781;BME280;52576;53.614;9.894;2024-02-16T03:10:26;100790.66;;;10.07;100.00
21781;BME280;52576;53.614;9.894;2024-02-16T03:12:37;100781.03;;;10.08;100.00
21781;BME280;52576;53.614;9.894;2024-02-16T03:14:40;100780.00;;;10.10;100.00
21781;BME280;52576;53.614;9.894;2024-02-16T03:16:43;100773.91;;;10.10;100.00
21781;BME280;52576;53.614;9.894;2024-02-16T03:18:46;100765.13;;;10.11;100.00
21781;BME280;52576;53.614;9.894;2024-02-16T03:20:50;100763.25;;;10.13;100.00
21781;BME280;52576;53.614;9.894;2024-02-16T03:22:53;100764.88;;;10.14;100.00
21781;BME280;52576;53.614;9.894;2024-02-16T03:24:57;100760.38;;;10.16;100.00
21781;BME280;52576;53.614;9.894;2024-02-16T03:27:00;100756.84;;;10.17;100.00
21781;BME280;52576;53.614;9.894;2024-02-16T03:29:05;100749.75;;;10.19;100.00
21781;BME280;52576;53.614;9.894;2024-02-16T03:31:15;100750.50;;;10.21;100.00
21781;BME280;52576;53.614;9.894;2024-02-16T03:33:20;100759.09;;;10.23;100.00
21781;BME280;52576;53.614;9.894;2024-02-16T03:35:23;100757.31;;;10.24;100.00
21781;BME280;52576;53.614;9.894;2024-02-16T03:37:26;100757.22;;;10.25;100.00
21781;BME280;52576;53.614;9.894;2024-02-16T03:39:29;100753.66;;;10.26;100.00
21781;BME280;52576;53.614;9.894;2024-02-16T03:41:32;100757.03;;;10.28;100.00
21781;BME280;52576;53.614;9.894;2024-02-16T03:43:35;100758.69;;;10.29;100.00
21781;BME280;52576;53.614;9.894;2024-02-16T03:45:40;100763.00;;;10.30;100.00
21781;BME280;52576;53.614;9.894;2024-02-16T03:47:43;100756.81;;;10.31;100.00
21781;BME280;52576;53.614;9.894;2024-02-16T03:49:46;100766.34;;;10.32;100.00
21781;BME280;52576;53.614;9.894;2024-02-16T03:51:49;100763.75;;;10.32;100.00
21781;BME280;52576;53.614;9.894;2024-02-16T03:53:52;100760.19;;;10.33;100.00
21781;BME280;52576;53.614;9.894;2024-02-16T03:55:55;100766.16;;;10.35;100.00
21781;BME280;52576;53.614;9.894;2024-02-16T03:57:57;100759.97;;;10.36;100.00
21781;BME280;52576;53.614;9.894;2024-02-16T04:00:00;100755.59;;;10.37;100.00
21781;BME280;52576;53.614;9.894;2024-02-16T04:02:14;100753.69;;;10.39;100.00
21781;BME280;52576;53.614;9.894;2024-02-16T04:04:17;100749.31;;;10.39;100.00
21781;BME280;52576;53.614;9.894;2024-02-16T04:06:20;100750.94;;;10.40;100.00
21781;BME280;52576;53.614;9.894;2024-02-16T04:08:23;100743.84;;;10.42;100.00
21781;BME280;52576;53.614;9.894;2024-02-16T04:10:26;100740.28;;;10.43;100.00
21781;BME280;52576;53.614;9.894;2024-02-16T04:12:28;100743.63;;;10.45;100.00
21781;BME280;52576;53.614;9.894;2024-02-16T04:14:31;100744.47;;;10.46;100.00
21781;BME280;52576;53.614;9.894;2024-02-16T04:16:35;100732.22;;;10.46;100.00
21781;BME280;52576;53.614;9.894;2024-02-16T04:18:39;100738.19;;;10.48;100.00
21781;BME280;52576;53.614;9.894;2024-02-16T04:20:43;100728.53;;;10.49;100.00
21781;BME280;52576;53.614;9.894;2024-02-16T04:22:46;100735.47;;;10.50;100.00
21781;BME280;52576;53.614;9.894;2024-02-16T04:24:49;100736.31;;;10.50;100.00
21781;BME280;52576;53.614;9.894;2024-02-16T04:26:52;100737.03;;;10.52;100.00
21781;BME280;52576;53.614;9.894;2024-02-16T04:28:55;100730.88;;;10.53;100.00
21781;BME280;52576;53.614;9.894;2024-02-16T04:30:58;100740.50;;;10.53;100.00
21781;BME280;52576;53.614;9.894;2024-02-16T04:33:00;100734.31;;;10.54;100.00
21781;BME280;52576;53.614;9.894;2024-02-16T04:35:05;100737.78;;;10.54;100.00
21781;BME280;52576;53.614;9.894;2024-02-16T04:37:13;100732.53;;;10.54;100.00
21781;BME280;52576;53.614;9.894;2024-02-16T04:39:16;100734.22;;;10.56;100.00
21781;BME280;52576;53.614;9.894;2024-02-16T04:41:21;100736.84;;;10.56;100.00
21781;BME280;52576;53.614;9.894;2024-02-16T04:43:24;100741.34;;;10.53;100.00
21781;BME280;52576;53.614;9.894;2024-02-16T04:45:27;100741.34;;;10.53;100.00
21781;BME280;52576;53.614;9.894;2024-02-16T04:47:32;100730.03;;;10.53;100.00
21781;BME280;52576;53.614;9.894;2024-02-16T04:49:35;100733.59;;;10.52;100.00
21781;BME280;52576;53.614;9.894;2024-02-16T04:51:39;100737.16;;;10.51;100.00
21781;BME280;52576;53.614;9.894;2024-02-16T04:53:42;100725.81;;;10.50;100.00
21781;BME280;52576;53.614;9.894;2024-02-16T04:55:45;100735.47;;;10.50;100.00
21781;BME280;52576;53.614;9.894;2024-02-16T04:57:49;100724.97;;;10.50;100.00
21781;BME280;52576;53.614;9.894;2024-02-16T04:59:52;100725.81;;;10.50;99.97
21781;BME280;52576;53.614;9.894;2024-02-16T05:01:55;100726.88;;;10.48;99.96
21781;BME280;52576;53.614;9.894;2024-02-16T05:03:58;100717.22;;;10.48;99.64
21781;BME280;52576;53.614;9.894;2024-02-16T05:06:04;100708.53;;;10.48;99.60
21781;BME280;52576;53.614;9.894;2024-02-16T05:08:08;100710.31;;;10.47;99.65
21781;BME280;52576;53.614;9.894;2024-02-16T05:10:11;100722.47;;;10.48;99.33
21781;BME280;52576;53.614;9.894;2024-02-16T05:12:14;100712.94;;;10.47;99.34
21781;BME280;52576;53.614;9.894;2024-02-16T05:14:20;100715.53;;;10.47;99.27
21781;BME280;52576;53.614;9.894;2024-02-16T05:16:23;100726.03;;;10.47;98.97
21781;BME280;52576;53.614;9.894;2024-02-16T05:18:27;100721.63;;;10.48;98.76
21781;BME280;52576;53.614;9.894;2024-02-16T05:20:30;100722.47;;;10.48;98.65
21781;BME280;52576;53.614;9.894;2024-02-16T05:22:33;100722.47;;;10.48;98.62
21781;BME280;52576;53.614;9.894;2024-02-16T05:24:36;100717.22;;;10.48;98.31
21781;BME280;52576;53.614;9.894;2024-02-16T05:26:39;100711.97;;;10.48;98.47
21781;BME280;52576;53.614;9.894;2024-02-16T05:28:42;100703.19;;;10.49;98.23
21781;BME280;52576;53.614;9.894;2024-02-16T05:30:45;100702.25;;;10.50;98.05
21781;BME280;52576;53.614;9.894;2024-02-16T05:32:49;100697.84;;;10.51;97.97
21781;BME280;52576;53.614;9.894;2024-02-16T05:34:55;100695.13;;;10.52;97.74
21781;BME280;52576;53.614;9.894;2024-02-16T05:36:58;100700.25;;;10.54;97.30
21781;BME280;52576;53.614;9.894;2024-02-16T05:39:03;100706.34;;;10.54;97.51
21781;BME280;52576;53.614;9.894;2024-02-16T05:41:23;100716.81;;;10.54;97.14
21781;BME280;52576;53.614;9.894;2024-02-16T05:43:26;100704.66;;;10.53;97.31
21781;BME280;52576;53.614;9.894;2024-02-16T05:45:29;100708.00;;;10.56;96.98
21781;BME280;52576;53.614;9.894;2024-02-16T05:47:32;100706.34;;;10.54;97.09
21781;BME280;52576;53.614;9.894;2024-02-16T05:49:35;100703.63;;;10.56;97.06
21781;BME280;52576;53.614;9.894;2024-02-16T05:51:40;100705.50;;;10.54;97.02
21781;BME280;52576;53.614;9.894;2024-02-16T05:53:44;100714.09;;;10.56;96.49
21781;BME280;52576;53.614;9.894;2024-02-16T05:55:49;100715.97;;;10.54;96.71
21781;BME280;52576;53.614;9.894;2024-02-16T05:57:53;100718.59;;;10.54;96.57
21781;BME280;52576;53.614;9.894;2024-02-16T05:59:56;100718.69;;;10.52;96.52
21781;BME280;52576;53.614;9.894;2024-02-16T06:02:02;100714.41;;;10.51;96.12
21781;BME280;52576;53.614;9.894;2024-02-16T06:04:05;100703.19;;;10.49;96.00
21781;BME280;52576;53.614;9.894;2024-02-16T06:06:08;100714.59;;;10.48;95.91
21781;BME280;52576;53.614;9.894;2024-02-16T06:08:12;100706.94;;;10.45;95.97
21781;BME280;52576;53.614;9.894;2024-02-16T06:10:15;100705.25;;;10.44;95.76
21781;BME280;52576;53.614;9.894;2024-02-16T06:12:18;100707.16;;;10.42;96.19
21781;BME280;52576;53.614;9.894;2024-02-16T06:14:22;100709.03;;;10.40;96.06
21781;BME280;52576;53.614;9.894;2024-02-16T06:16:25;100704.88;;;10.38;96.07
21781;BME280;52576;53.614;9.894;2024-02-16T06:18:28;100710.19;;;10.36;96.02
21781;BME280;52576;53.614;9.894;2024-02-16T06:20:31;100707.78;;;10.33;95.66
21781;BME280;52576;53.614;9.894;2024-02-16T06:22:35;100704.44;;;10.31;95.95
21781;BME280;52576;53.614;9.894;2024-02-16T06:24:38;100708.94;;;10.29;95.96
21781;BME280;52576;53.614;9.894;2024-02-16T06:26:41;100708.19;;;10.27;95.68
21781;BME280;52576;53.614;9.894;2024-02-16T06:28:45;100704.09;;;10.23;95.74
21781;BME280;52576;53.614;9.894;2024-02-16T06:30:49;100715.50;;;10.22;95.84
21781;BME280;52576;53.614;9.894;2024-02-16T06:32:52;100705.22;;;10.19;95.78
21781;BME280;52576;53.614;9.894;2024-02-16T06:34:56;100713.25;;;10.16;95.98
21781;BME280;52576;53.614;9.894;2024-02-16T06:37:00;100712.50;;;10.14;96.12
21781;BME280;52576;53.614;9.894;2024-02-16T06:39:03;100715.25;;;10.12;95.84
21781;BME280;52576;53.614;9.894;2024-02-16T06:41:05;100711.91;;;10.10;95.95
21781;BME280;52576;53.614;9.894;2024-02-16T06:43:08;100721.72;;;10.07;95.87
21781;BME280;52576;53.614;9.894;2024-02-16T06:45:11;100721.94;;;10.04;96.05
21781;BME280;52576;53.614;9.894;2024-02-16T06:47:15;100723.81;;;10.02;96.03
21781;BME280;52576;53.614;9.894;2024-02-16T06:49:18;100718.56;;;10.02;95.94
21781;BME280;52576;53.614;9.894;2024-02-16T06:51:22;100713.44;;;10.00;95.89
21781;BME280;52576;53.614;9.894;2024-02-16T06:53:25;100711.75;;;9.99;95.92
21781;BME280;52576;53.614;9.894;2024-02-16T06:55:28;100713.53;;;9.99;96.11
21781;BME280;52576;53.614;9.894;2024-02-16T06:57:31;100715.31;;;9.98;96.07
21781;BME280;52576;53.614;9.894;2024-02-16T06:59:34;100717.09;;;9.98;96.27
21781;BME280;52576;53.614;9.894;2024-02-16T07:01:37;100718.75;;;9.99;95.96
21781;BME280;52576;53.614;9.894;2024-02-16T07:03:43;100713.53;;;9.99;95.86
21781;BME280;52576;53.614;9.894;2024-02-16T07:05:46;100716.16;;;9.99;95.88
21781;BME280;52576;53.614;9.894;2024-02-16T07:07:48;100723.06;;;10.00;95.82
21781;BME280;52576;53.614;9.894;2024-02-16T07:09:52;100727.34;;;10.01;95.85
21781;BME280;52576;53.614;9.894;2024-02-16T07:11:55;100730.72;;;10.03;95.63
21781;BME280;52576;53.614;9.894;2024-02-16T07:13:58;100732.41;;;10.04;95.80
21781;BME280;52576;53.614;9.894;2024-02-16T07:16:04;100737.44;;;10.07;95.43
21781;BME280;52576;53.614;9.894;2024-02-16T07:18:08;100731.16;;;10.09;95.43
21781;BME280;52576;53.614;9.894;2024-02-16T07:20:13;100737.06;;;10.13;95.24
21781;BME280;52576;53.614;9.894;2024-02-16T07:22:17;100728.03;;;10.17;95.37
21781;BME280;52576;53.614;9.894;2024-02-16T07:24:20;100734.78;;;10.21;94.83
21781;BME280;52576;53.614;9.894;2024-02-16T07:26:23;100724.94;;;10.25;94.85
21781;BME280;52576;53.614;9.894;2024-02-16T07:28:25;100733.34;;;10.30;94.74
21781;BME280;52576;53.614;9.894;2024-02-16T07:30:29;100732.31;;;10.32;94.56
21781;BME280;52576;53.614;9.894;2024-02-16T07:32:48;100730.22;;;10.37;94.18
21781;BME280;52576;53.614;9.894;2024-02-16T07:34:52;100731.66;;;10.41;93.95
21781;BME280;52576;53.614;9.894;2024-02-16T07:36:57;100723.72;;;10.43;93.72
21781;BME280;52576;53.614;9.894;2024-02-16T07:39:00;100733.78;;;10.49;93.45
21781;BME280;52576;53.614;9.894;2024-02-16T07:41:03;100730.03;;;10.53;93.33
21781;BME280;52576;53.614;9.894;2024-02-16T07:43:10;100728.78;;;10.59;93.17
21781;BME280;52576;53.614;9.894;2024-02-16T07:45:13;100737.19;;;10.64;92.90
21781;BME280;52576;53.614;9.894;2024-02-16T07:47:16;100733.38;;;10.68;92.65
21781;BME280;52576;53.614;9.894;2024-02-16T07:49:18;100733.06;;;10.72;92.62
21781;BME280;52576;53.614;9.894;2024-02-16T07:51:22;100743.25;;;10.77;92.32
21781;BME280;52576;53.614;9.894;2024-02-16T07:53:27;100744.72;;;10.81;91.83
21781;BME280;52576;53.614;9.894;2024-02-16T07:55:30;100740.97;;;10.85;91.74
21781;BME280;52576;53.614;9.894;2024-02-16T07:57:34;100739.81;;;10.89;91.21
21781;BME280;52576;53.614;9.894;2024-02-16T07:59:39;100743.88;;;10.93;90.89
21781;BME280;52576;53.614;9.894;2024-02-16T08:01:42;100741.97;;;10.95;90.81
21781;BME280;52576;53.614;9.894;2024-02-16T08:03:46;100735.59;;;10.99;90.65
21781;BME280;52576;53.614;9.894;2024-02-16T08:05:50;100734.44;;;11.03;90.44
21781;BME280;52576;53.614;9.894;2024-02-16T08:07:53;100723.72;;;11.06;89.96
21781;BME280;52576;53.614;9.894;2024-02-16T08:09:58;100726.88;;;11.11;90.12
21781;BME280;52576;53.614;9.894;2024-02-16T08:12:00;100728.09;;;11.18;89.90
21781;BME280;52576;53.614;9.894;2024-02-16T08:14:07;100727.69;;;11.25;89.56
21781;BME280;52576;53.614;9.894;2024-02-16T08:16:10;100712.34;;;11.31;89.00
21781;BME280;52576;53.614;9.894;2024-02-16T08:18:13;100718.03;;;11.38;88.74
21781;BME280;52576;53.614;9.894;2024-02-16T08:20:18;100721.97;;;11.43;88.39
21781;BME280;52576;53.614;9.894;2024-02-16T08:22:21;100709.47;;;11.47;87.97
21781;BME280;52576;53.614;9.894;2024-02-16T08:24:24;100712.72;;;11.50;87.65
21781;BME280;52576;53.614;9.894;2024-02-16T08:26:29;100704.53;;;11.55;87.29
21781;BME280;52576;53.614;9.894;2024-02-16T08:28:32;100708.59;;;11.59;86.83
21781;BME280;52576;53.614;9.894;2024-02-16T08:30:35;100700.50;;;11.62;86.60
21781;BME280;52576;53.614;9.894;2024-02-16T08:32:43;100706.38;;;11.66;86.08
21781;BME280;52576;53.614;9.894;2024-02-16T08:34:46;100712.25;;;11.69;85.39
21781;BME280;52576;53.614;9.894;2024-02-16T08:36:51;100717.25;;;11.72;85.57
21781;BME280;52576;53.614;9.894;2024-02-16T08:38:54;100716.13;;;11.76;85.49
21781;BME280;52576;53.614;9.894;2024-02-16T08:40:57;100714.22;;;11.78;85.26
21781;BME280;52576;53.614;9.894;2024-02-16T08:43:03;100717.59;;;11.80;84.99
21781;BME280;52576;53.614;9.894;2024-02-16T08:45:07;100708.66;;;11.83;84.86
21781;BME280;52576;53.614;9.894;2024-02-16T08:47:10;100711.16;;;11.84;84.87
21781;BME280;52576;53.614;9.894;2024-02-16T08:49:14;100716.19;;;11.87;84.61
21781;BME280;52576;53.614;9.894;2024-02-16T08:51:17;100706.53;;;11.88;84.24
21781;BME280;52576;53.614;9.894;2024-02-16T08:53:20;100707.38;;;11.88;83.79
21781;BME280;52576;53.614;9.894;2024-02-16T08:55:23;100710.72;;;11.91;83.70
21781;BME280;52576;53.614;9.894;2024-02-16T08:57:27;100714.06;;;11.93;83.50
21781;BME280;52576;53.614;9.894;2024-02-16T08:59:31;100700.00;;;11.94;83.67
21781;BME280;52576;53.614;9.894;2024-02-16T09:01:34;100703.31;;;11.96;83.34
21781;BME280;52576;53.614;9.894;2024-02-16T09:03:38;100704.88;;;11.98;83.45
21781;BME280;52576;53.614;9.894;2024-02-16T09:05:42;100706.44;;;12.01;83.49
21781;BME280;52576;53.614;9.894;2024-02-16T09:07:46;100704.53;;;12.03;83.35
21781;BME280;52576;53.614;9.894;2024-02-16T09:09:49;100705.16;;;12.06;83.22
21781;BME280;52576;53.614;9.894;2024-02-16T09:11:52;100710.41;;;12.06;83.58
21781;BME280;52576;53.614;9.894;2024-02-16T09:13:55;100704.09;;;12.09;82.96
21781;BME280;52576;53.614;9.894;2024-02-16T09:16:00;100704.81;;;12.11;82.67
21781;BME280;52576;53.614;9.894;2024-02-16T09:18:03;100697.78;;;12.11;82.30
21781;BME280;52576;53.614;9.894;2024-02-16T09:20:07;100696.72;;;12.14;82.30
21781;BME280;52576;53.614;9.894;2024-02-16T09:22:11;100710.59;;;12.16;82.27
21781;BME280;52576;53.614;9.894;2024-02-16T09:24:14;100705.09;;;12.19;81.87
21781;BME280;52576;53.614;9.894;2024-02-16T09:26:19;100700.44;;;12.22;81.73
21781;BME280;52576;53.614;9.894;2024-02-16T09:28:24;100699.38;;;12.25;82.14
21781;BME280;52576;53.614;9.894;2024-02-16T09:30:31;100692.09;;;12.29;81.74
21781;BME280;52576;53.614;9.894;2024-02-16T09:32:36;100690.06;;;12.32;81.40
21781;BME280;52576;53.614;9.894;2024-02-16T09:34:39;100689.84;;;12.35;81.39
21781;BME280;52576;53.614;9.894;2024-02-16T09:36:44;100698.22;;;12.40;81.25
21781;BME280;52576;53.614;9.894;2024-02-16T09:38:47;100706.63;;;12.45;80.97
21781;BME280;52576;53.614;9.894;2024-02-16T09:40:50;100714.00;;;12.51;81.54
21781;BME280;52576;53.614;9.894;2024-02-16T09:42:54;100712.84;;;12.55;81.23
21781;BME280;52576;53.614;9.894;2024-02-16T09:44:58;100705.66;;;12.57;81.03
21781;BME280;52576;53.614;9.894;2024-02-16T09:47:06;100713.31;;;12.61;80.95
21781;BME280;52576;53.614;9.894;2024-02-16T09:49:18;100714.28;;;12.60;81.02
21781;BME280;52576;53.614;9.894;2024-02-16T09:51:36;100719.31;;;12.63;80.82
21781;BME280;52576;53.614;9.894;2024-02-16T09:53:40;100722.66;;;12.65;80.67
21781;BME280;52576;53.614;9.894;2024-02-16T09:55:44;100711.91;;;12.68;80.66
21781;BME280;52576;53.614;9.894;2024-02-16T09:57:58;100713.47;;;12.70;80.23
21781;BME280;52576;53.614;9.894;2024-02-16T10:00:01;100716.69;;;12.74;80.34
21781;BME280;52576;53.614;9.894;2024-02-16T10:02:13;100715.50;;;12.78;80.33
21781;BME280;52576;53.614;9.894;2024-02-16T10:04:17;100712.63;;;12.81;80.40
21781;BME280;52576;53.614;9.894;2024-02-16T10:06:20;100714.91;;;12.85;80.92
21781;BME280;52576;53.614;9.894;2024-02-16T10:08:25;100721.50;;;12.91;80.60
21781;BME280;52576;53.614;9.894;2024-02-16T10:10:28;100718.41;;;12.97;80.81
21781;BME280;52576;53.614;9.894;2024-02-16T10:12:33;100719.81;;;13.01;80.57
21781;BME280;52576;53.614;9.894;2024-02-16T10:14:36;100711.56;;;13.06;80.39
21781;BME280;52576;53.614;9.894;2024-02-16T10:16:43;100722.47;;;13.12;79.78
21781;BME280;52576;53.614;9.894;2024-02-16T10:18:45;100722.00;;;13.18;79.56
21781;BME280;52576;53.614;9.894;2024-02-16T10:20:49;100721.78;;;13.21;79.11
21781;BME280;52576;53.614;9.894;2024-02-16T10:23:05;100724.88;;;13.27;78.90
21781;BME280;52576;53.614;9.894;2024-02-16T10:25:08;100723.78;;;13.29;78.58
21781;BME280;52576;53.614;9.894;2024-02-16T10:27:14;100727.03;;;13.33;78.21
21781;BME280;52576;53.614;9.894;2024-02-16T10:29:21;100725.94;;;13.35;77.90
21781;BME280;52576;53.614;9.894;2024-02-16T10:31:26;100723.06;;;13.38;77.86
21781;BME280;52576;53.614;9.894;2024-02-16T10:33:32;100734.19;;;13.42;77.99
21781;BME280;52576;53.614;9.894;2024-02-16T10:35:36;100736.59;;;13.45;77.47
21781;BME280;52576;53.614;9.894;2024-02-16T10:37:41;100737.31;;;13.47;77.40
21781;BME280;52576;53.614;9.894;2024-02-16T10:39:44;100727.50;;;13.49;76.94
21781;BME280;52576;53.614;9.894;2024-02-16T10:41:48;100731.81;;;13.50;77.23
21781;BME280;52576;53.614;9.894;2024-02-16T10:43:53;100731.81;;;13.50;76.77